Time;durP1;ratioP1;P1;durP2;ratioP2;P2;SDS_P1;SDS_P2;PMS_P1;PMS_P2;Temp;Humidity;BMP_temperature;BMP_pressure;BME280_temperature;BME280_humidity;BME280_pressure;Samples;Min_cycle;Max_cycle;Signal;HPM_P1;HPM_P2
2022/05/08 00:01:14;;;;;;;20.75;4.60;;;10.00;99.10;;;;;;5012762;28;20406;-42
2022/05/08 00:03:40;;;;;;;25.17;4.97;;;10.00;99.10;;;;;;5007001;28;20050;-43
2022/05/08 00:06:10;;;;;;;22.15;5.15;;;10.00;99.00;;;;;;5014856;28;20060;-42
2022/05/08 00:08:38;;;;;;;20.98;4.43;;;10.00;99.20;;;;;;5013078;28;20049;-43
2022/05/08 00:11:06;;;;;;;27.75;4.85;;;10.00;98.70;;;;;;5012762;28;20046;-43
2022/05/08 00:13:33;;;;;;;22.50;4.82;;;10.00;98.60;;;;;;5007135;28;20056;-43
2022/05/08 00:16:00;;;;;;;19.98;4.38;;;10.00;98.50;;;;;;5008763;28;20077;-43
2022/05/08 00:18:27;;;;;;;18.42;4.75;;;10.00;98.30;;;;;;5012436;28;20057;-43
2022/05/08 00:20:53;;;;;;;21.60;4.30;;;10.00;98.30;;;;;;5012146;28;20166;-43
2022/05/08 00:23:20;;;;;;;27.00;4.45;;;10.00;98.30;;;;;;5013396;28;20060;-43
2022/05/08 00:25:47;;;;;;;21.25;4.55;;;9.90;98.30;;;;;;5009578;28;20057;-43
2022/05/08 00:28:15;;;;;;;20.95;3.75;;;9.90;98.40;;;;;;5011891;28;20154;-43
2022/05/08 00:30:42;;;;;;;22.05;4.45;;;9.80;98.50;;;;;;5012162;28;20409;-43
2022/05/08 00:33:08;;;;;;;22.92;3.72;;;9.70;98.40;;;;;;5012458;28;20085;-43
2022/05/08 00:35:35;;;;;;;23.50;3.80;;;9.70;98.30;;;;;;5010507;28;20056;-43
2022/05/08 00:38:02;;;;;;;25.10;4.63;;;9.70;98.50;;;;;;5013425;28;20054;-43
2022/05/08 00:40:30;;;;;;;24.17;4.53;;;9.60;98.50;;;;;;5011222;28;20132;-43
2022/05/08 00:42:58;;;;;;;20.10;4.15;;;9.60;98.50;;;;;;5009757;28;20053;-43
2022/05/08 00:45:26;;;;;;;18.95;4.18;;;9.60;98.40;;;;;;5007633;28;20478;-43
2022/05/08 00:47:54;;;;;;;17.83;3.83;;;9.50;98.30;;;;;;5012277;28;20063;-42
2022/05/08 00:50:21;;;;;;;28.98;4.80;;;9.50;98.30;;;;;;5011779;28;20053;-43
2022/05/08 00:52:47;;;;;;;18.52;3.88;;;9.50;98.30;;;;;;5012292;28;20046;-43
2022/05/08 00:55:14;;;;;;;21.20;4.43;;;9.50;98.10;;;;;;5009582;28;20052;-43
2022/05/08 00:57:42;;;;;;;20.80;4.53;;;9.50;98.00;;;;;;5011652;28;20046;-42
2022/05/08 01:00:10;;;;;;;22.65;4.28;;;9.50;97.90;;;;;;5011264;28;20478;-43
2022/05/08 01:02:39;;;;;;;25.90;4.75;;;9.40;97.90;;;;;;5006020;28;20085;-43
2022/05/08 01:05:06;;;;;;;20.27;4.38;;;9.40;97.80;;;;;;5011952;28;20387;-43
2022/05/08 01:07:33;;;;;;;21.48;3.97;;;9.40;97.80;;;;;;5010216;28;20410;-43
2022/05/08 01:10:00;;;;;;;24.08;4.85;;;9.40;97.90;;;;;;5010893;28;20092;-42
2022/05/08 01:12:27;;;;;;;24.10;5.28;;;9.30;98.20;;;;;;5009825;28;20459;-42
2022/05/08 01:15:14;;;;;;;22.27;4.43;;;9.20;98.30;;;;;;5010493;28;20049;-42
2022/05/08 01:17:42;;;;;;;25.77;5.35;;;9.20;98.30;;;;;;5010709;28;20046;-42
2022/05/08 01:20:09;;;;;;;20.95;4.40;;;9.10;98.60;;;;;;5010748;28;20048;-42
2022/05/08 01:22:37;;;;;;;19.60;3.92;;;9.00;98.80;;;;;;5009636;28;20058;-42
2022/05/08 01:25:05;;;;;;;22.95;4.13;;;9.00;98.90;;;;;;5008286;28;20056;-42
2022/05/08 01:27:31;;;;;;;16.33;3.67;;;9.00;98.80;;;;;;5011392;28;20050;-42
2022/05/08 01:29:58;;;;;;;18.33;4.10;;;8.90;98.70;;;;;;5011086;28;20053;-42
2022/05/08 01:32:25;;;;;;;18.05;4.28;;;8.90;98.60;;;;;;5003797;28;20042;-42
2022/05/08 01:34:52;;;;;;;24.05;4.88;;;8.90;98.40;;;;;;5011781;28;20060;-42
2022/05/08 01:37:19;;;;;;;31.33;5.10;;;8.90;98.50;;;;;;5000716;28;20054;-41
2022/05/08 01:39:47;;;;;;;19.13;4.05;;;8.90;98.50;;;;;;5011239;28;20050;-42
2022/05/08 01:42:14;;;;;;;16.33;4.20;;;8.90;98.40;;;;;;5002878;28;20058;-42
2022/05/08 01:44:40;;;;;;;16.60;3.78;;;8.80;98.30;;;;;;5010434;28;20180;-42
2022/05/08 01:49:51;;;;;;;18.25;4.30;;;8.80;98.00;;;;;;5010817;28;20046;-42
2022/05/08 01:52:18;;;;;;;16.67;4.20;;;8.70;98.00;;;;;;5010071;28;20132;-42
2022/05/08 01:54:45;;;;;;;21.90;3.88;;;8.70;98.10;;;;;;5011678;28;20052;-42
2022/05/08 01:57:13;;;;;;;19.42;4.35;;;8.70;98.00;;;;;;5010138;28;20056;-42
2022/05/08 01:59:40;;;;;;;19.77;5.13;;;8.70;98.00;;;;;;5004051;28;20056;-42
2022/05/08 02:02:08;;;;;;;18.33;4.72;;;8.60;98.00;;;;;;5010783;28;20070;-42
2022/05/08 02:04:34;;;;;;;20.65;4.18;;;8.60;98.10;;;;;;5010289;28;20045;-42
2022/05/08 02:07:06;;;;;;;13.10;3.97;;;8.60;98.10;;;;;;5010247;28;20046;-42
2022/05/08 02:09:33;;;;;;;;;;;8.50;98.00;;;;;;5011191;28;20132;-42
2022/05/08 02:11:59;;;;;;;22.48;4.95;;;8.50;97.40;;;;;;4999766;28;19921;-42
2022/05/08 02:14:28;;;;;;;18.30;4.13;;;8.40;98.00;;;;;;5010853;28;20336;-42
2022/05/08 02:16:54;;;;;;;18.58;4.32;;;8.40;98.10;;;;;;5010062;28;20478;-43
2022/05/08 02:19:22;;;;;;;22.50;4.65;;;8.40;98.40;;;;;;5011392;28;20071;-43
2022/05/08 02:21:48;;;;;;;26.08;4.00;;;8.30;98.10;;;;;;5010074;28;20085;-43
2022/05/08 02:24:15;;;;;;;20.92;3.60;;;8.30;98.00;;;;;;5006616;28;20553;-42
2022/05/08 02:26:42;;;;;;;22.77;4.43;;;8.30;98.00;;;;;;5013289;28;20077;-43
2022/05/08 02:29:08;;;;;;;17.55;4.22;;;8.30;98.10;;;;;;5013970;28;20092;-43
2022/05/08 02:31:37;;;;;;;21.55;4.47;;;8.20;98.00;;;;;;5013856;28;20569;-43
2022/05/08 02:34:04;;;;;;;18.55;4.10;;;8.20;98.00;;;;;;5015336;28;20050;-42
2022/05/08 02:36:30;;;;;;;27.52;4.43;;;8.20;98.00;;;;;;5012157;28;20398;-42
2022/05/08 02:38:57;;;;;;;15.05;4.03;;;8.20;98.20;;;;;;5013149;28;20046;-42
2022/05/08 02:41:24;;;;;;;13.95;4.13;;;8.10;98.10;;;;;;5012890;28;20045;-41
2022/05/08 02:43:50;;;;;;;13.88;3.85;;;8.10;98.10;;;;;;5014383;28;20484;-42
2022/05/08 02:46:17;;;;;;;18.33;4.13;;;8.10;98.00;;;;;;5012880;28;20053;-43
2022/05/08 02:48:45;;;;;;;21.13;4.53;;;8.10;97.90;;;;;;5014283;28;20060;-42
2022/05/08 02:51:12;;;;;;;19.90;4.28;;;8.00;98.10;;;;;;5009842;28;20076;-43
2022/05/08 02:53:39;;;;;;;19.88;3.70;;;8.00;98.00;;;;;;5011000;28;20057;-42
2022/05/08 02:58:49;;;;;;;15.70;3.92;;;7.90;97.90;;;;;;4999174;28;20049;-42
2022/05/08 03:01:16;;;;;;;19.33;4.07;;;7.90;97.90;;;;;;5013905;28;20049;-42
2022/05/08 03:03:43;;;;;;;16.65;4.22;;;7.90;98.00;;;;;;5014325;28;20128;-42
2022/05/08 03:06:13;;;;;;;12.13;3.80;;;7.80;98.00;;;;;;5012180;28;20410;-43
2022/05/08 03:08:39;;;;;;;19.15;4.22;;;7.80;98.00;;;;;;5014495;28;20093;-43
2022/05/08 03:13:56;;;;;;;12.73;3.33;;;7.70;98.10;;;;;;5012884;28;20486;-42
2022/05/08 03:16:22;;;;;;;14.70;3.95;;;7.70;98.00;;;;;;5007230;28;20052;-42
2022/05/08 03:18:49;;;;;;;19.85;4.75;;;7.60;98.00;;;;;;5013869;28;20139;-42
2022/05/08 03:21:18;;;;;;;16.27;3.83;;;7.60;98.00;;;;;;5012213;28;20156;-42
2022/05/08 03:23:45;;;;;;;16.58;3.95;;;7.60;98.20;;;;;;5014187;28;20053;-42
2022/05/08 03:26:14;;;;;;;12.75;3.72;;;7.60;98.20;;;;;;5013839;28;20046;-42
2022/05/08 03:28:40;;;;;;;24.90;5.25;;;7.50;98.30;;;;;;5013342;28;20050;-42
2022/05/08 03:31:07;;;;;;;15.80;4.57;;;7.50;98.40;;;;;;5011199;28;20041;-42
2022/05/08 03:33:35;;;;;;;17.33;4.47;;;7.50;98.50;;;;;;5012800;28;20155;-42
2022/05/08 03:36:02;;;;;;;21.10;5.30;;;7.50;98.50;;;;;;5013885;28;20046;-42
2022/05/08 03:38:30;;;;;;;20.77;5.07;;;7.50;98.70;;;;;;5010348;28;20046;-42
2022/05/08 03:40:57;;;;;;;13.77;3.85;;;7.40;98.70;;;;;;5012072;28;20061;-42
2022/05/08 03:43:27;;;;;;;14.48;3.60;;;7.40;98.70;;;;;;5008157;28;20417;-42
2022/05/08 03:45:53;;;;;;;15.15;3.70;;;7.40;98.70;;;;;;5011405;28;20394;-42
2022/05/08 03:48:22;;;;;;;16.33;4.03;;;7.30;98.60;;;;;;5011891;28;20056;-42
2022/05/08 03:50:48;;;;;;;14.98;3.95;;;7.30;98.60;;;;;;5006621;28;20058;-42
2022/05/08 03:53:15;;;;;;;13.90;4.10;;;7.30;98.50;;;;;;5012208;28;20046;-42
2022/05/08 03:55:46;;;;;;;12.20;4.05;;;7.30;98.40;;;;;;5011098;28;20089;-42
2022/05/08 03:58:13;;;;;;;20.55;4.35;;;7.30;98.40;;;;;;5011411;28;20054;-42
2022/05/08 04:00:40;;;;;;;14.18;3.45;;;7.30;98.30;;;;;;5009961;28;20054;-42
2022/05/08 04:03:07;;;;;;;18.20;4.70;;;7.20;98.30;;;;;;5012642;28;20046;-42
2022/05/08 04:05:33;;;;;;;17.50;4.32;;;7.20;98.40;;;;;;5009941;28;20046;-42
2022/05/08 04:08:00;;;;;;;19.13;4.75;;;7.20;98.60;;;;;;5008035;28;20130;-42
2022/05/08 04:10:27;;;;;;;12.05;3.72;;;7.20;98.80;;;;;;5013379;28;20056;-41
2022/05/08 04:12:55;;;;;;;17.80;4.28;;;7.20;99.00;;;;;;5012070;28;20132;-42
2022/05/08 04:18:07;;;;;;;20.20;4.63;;;7.10;99.30;;;;;;5011631;28;20084;-42
2022/05/08 04:20:34;;;;;;;17.42;4.18;;;7.10;99.30;;;;;;5009769;28;20455;-42
2022/05/08 04:25:44;;;;;;;11.43;3.90;;;7.10;99.20;;;;;;5008522;28;20481;-42
2022/05/08 04:28:12;;;;;;;16.55;4.22;;;7.10;99.20;;;;;;5008622;28;20061;-42
2022/05/08 04:30:39;;;;;;;17.27;4.57;;;7.20;99.20;;;;;;5005840;28;20052;-42
2022/05/08 04:33:06;;;;;;;17.17;4.60;;;7.10;99.20;;;;;;5010520;28;20045;-41
2022/05/08 04:35:33;;;;;;;15.57;3.90;;;7.20;99.30;;;;;;5010114;28;20144;-42
2022/05/08 04:37:59;;;;;;;16.85;4.90;;;7.20;99.30;;;;;;5013176;28;20048;-42
2022/05/08 04:40:26;;;;;;;14.73;3.92;;;7.20;99.30;;;;;;5012479;28;20046;-42
2022/05/08 04:42:53;;;;;;;12.02;3.60;;;7.20;99.30;;;;;;5011810;28;20058;-43
2022/05/08 04:45:21;;;;;;;18.05;4.88;;;7.20;99.30;;;;;;5012292;28;20050;-43
2022/05/08 04:47:48;;;;;;;16.55;3.97;;;7.20;99.20;;;;;;5011209;28;20391;-43
2022/05/08 04:50:14;;;;;;;18.10;4.32;;;7.20;99.20;;;;;;5012877;28;20049;-43
2022/05/08 04:52:41;;;;;;;16.90;4.50;;;7.20;99.10;;;;;;5011945;28;20125;-43
2022/05/08 04:55:09;;;;;;;12.00;4.32;;;7.20;99.10;;;;;;5011972;28;20046;-42
2022/05/08 04:57:35;;;;;;;14.32;4.10;;;7.30;99.10;;;;;;5011941;28;20052;-43
2022/05/08 05:00:02;;;;;;;16.42;5.13;;;7.30;99.30;;;;;;5011854;28;20054;-43
2022/05/08 05:02:30;;;;;;;11.85;3.97;;;7.30;99.70;;;;;;5003561;28;20045;-43
2022/05/08 05:04:58;;;;;;;19.15;4.43;;;7.30;99.70;;;;;;5007869;28;20061;-43
2022/05/08 05:07:25;;;;;;;15.65;4.30;;;7.40;99.60;;;;;;5008729;28;20061;-43
2022/05/08 05:09:51;;;;;;;14.52;3.70;;;7.40;99.60;;;;;;5014835;28;20060;-43
2022/05/08 05:12:18;;;;;;;21.05;5.20;;;7.40;99.80;;;;;;5009553;28;20042;-42
2022/05/08 05:14:45;;;;;;;20.83;5.25;;;7.40;99.80;;;;;;5012192;28;20056;-43
2022/05/08 05:17:11;;;;;;;19.73;4.95;;;7.50;99.90;;;;;;5012080;28;20522;-42
2022/05/08 05:19:39;;;;;;;18.27;4.78;;;7.50;99.90;;;;;;5007387;28;20483;-42
2022/05/08 05:22:06;;;;;;;27.90;4.90;;;7.50;99.90;;;;;;5009639;28;20068;-42
2022/05/08 05:24:33;;;;;;;18.45;4.68;;;7.50;99.90;;;;;;5015771;28;20048;-43
2022/05/08 05:27:00;;;;;;;17.83;4.95;;;7.50;99.90;;;;;;5004560;28;20516;-42
2022/05/08 05:29:27;;;;;;;24.45;5.55;;;7.50;99.90;;;;;;5011471;28;20052;-42
2022/05/08 05:31:53;;;;;;;25.77;4.70;;;7.50;99.90;;;;;;5009921;28;20069;-43
2022/05/08 05:34:20;;;;;;;16.92;4.53;;;7.60;99.90;;;;;;5005775;28;20060;-43
2022/05/08 05:36:48;;;;;;;20.02;5.28;;;7.70;99.90;;;;;;5010161;28;20153;-42
2022/05/08 05:39:15;;;;;;;16.95;4.03;;;7.70;99.90;;;;;;5010533;28;20486;-42
2022/05/08 05:41:42;;;;;;;16.98;4.55;;;7.80;99.90;;;;;;5009895;28;20061;-42
2022/05/08 05:44:09;;;;;;;24.60;5.45;;;7.90;99.90;;;;;;5004740;28;20380;-42
2022/05/08 05:49:20;;;;;;;16.27;3.40;;;8.10;99.90;;;;;;5009323;28;20050;-42
2022/05/08 05:51:48;;;;;;;17.13;4.18;;;8.30;99.90;;;;;;5011953;28;20541;-42
2022/05/08 05:54:15;;;;;;;15.52;3.85;;;8.40;99.90;;;;;;5010497;28;20058;-42
2022/05/08 05:56:41;;;;;;;17.73;4.03;;;8.60;99.90;;;;;;5011349;28;20050;-42
2022/05/08 05:59:08;;;;;;;19.77;5.43;;;8.70;99.90;;;;;;5011632;28;20426;-42
2022/05/08 06:01:35;;;;;;;14.57;3.33;;;8.80;99.90;;;;;;5009805;28;20108;-42
2022/05/08 06:04:01;;;;;;;19.02;4.13;;;9.00;99.90;;;;;;5014232;28;20134;-41
2022/05/08 06:06:28;;;;;;;15.48;3.55;;;9.10;99.90;;;;;;5014788;28;20096;-42
2022/05/08 06:08:56;;;;;;;13.07;3.80;;;9.30;99.90;;;;;;5015497;28;20421;-42
2022/05/08 06:11:23;;;;;;;21.63;4.30;;;9.40;99.90;;;;;;5010446;28;20046;-42
2022/05/08 06:13:49;;;;;;;16.65;3.47;;;9.60;99.90;;;;;;5014541;28;20054;-42
2022/05/08 06:16:16;;;;;;;16.45;3.50;;;9.70;99.90;;;;;;5013996;28;20054;-42
2022/05/08 06:18:44;;;;;;;14.85;3.53;;;9.80;99.90;;;;;;5011702;28;20548;-42
2022/05/08 06:21:10;;;;;;;16.52;3.17;;;10.00;99.90;;;;;;5014172;28;20442;-42
2022/05/08 06:23:37;;;;;;;11.80;3.30;;;10.10;99.60;;;;;;5013855;28;20060;-42
2022/05/08 06:26:05;;;;;;;14.35;3.38;;;10.20;99.30;;;;;;5013330;28;20509;-42
2022/05/08 06:28:32;;;;;;;15.48;3.05;;;10.40;99.30;;;;;;5014035;28;20129;-41
2022/05/08 06:30:59;;;;;;;15.10;3.20;;;10.50;99.10;;;;;;5012468;28;20449;-43
2022/05/08 06:33:26;;;;;;;10.20;2.33;;;10.60;98.30;;;;;;5010310;28;20042;-43
2022/05/08 06:35:54;;;;;;;11.35;2.60;;;10.70;98.10;;;;;;5010746;28;20049;-43
2022/05/08 06:38:20;;;;;;;15.75;2.55;;;10.80;97.70;;;;;;5013578;28;20418;-43
2022/05/08 06:40:47;;;;;;;12.88;2.88;;;10.80;97.40;;;;;;5012190;28;20054;-43
2022/05/08 06:43:15;;;;;;;15.20;2.95;;;11.00;97.50;;;;;;5005862;28;20121;-43
2022/05/08 06:45:42;;;;;;;16.30;2.47;;;11.20;97.20;;;;;;5009305;28;20080;-43
2022/05/08 06:48:09;;;;;;;20.63;2.40;;;11.30;96.80;;;;;;5020291;28;20043;-43
2022/05/08 06:50:35;;;;;;;12.13;2.25;;;11.40;96.00;;;;;;5011411;28;20083;-43
2022/05/08 06:53:04;;;;;;;11.65;2.03;;;11.40;95.60;;;;;;5029387;28;20048;-43
2022/05/08 06:55:31;;;;;;;15.75;2.25;;;11.40;95.30;;;;;;5014258;28;20052;-43
2022/05/08 06:57:57;;;;;;;13.10;1.98;;;11.40;95.50;;;;;;5006750;28;20050;-43
2022/05/08 07:03:10;;;;;;;15.30;2.22;;;11.40;95.20;;;;;;5006549;28;20050;-42
2022/05/08 07:05:40;;;;;;;9.25;2.20;;;11.40;95.30;;;;;;5005665;28;20053;-42
2022/05/08 07:08:07;;;;;;;8.77;2.17;;;11.50;95.50;;;;;;5009610;28;20065;-43
2022/05/08 07:10:33;;;;;;;8.57;2.05;;;11.60;95.10;;;;;;5010980;28;20545;-42
2022/05/08 07:13:00;;;;;;;11.32;2.20;;;11.70;95.00;;;;;;5012060;28;20046;-42
2022/05/08 07:15:28;;;;;;;10.80;2.17;;;11.70;94.90;;;;;;5013219;28;20050;-43
2022/05/08 07:17:55;;;;;;;9.07;1.73;;;11.80;95.20;;;;;;5012134;28;20072;-43
2022/05/08 07:20:21;;;;;;;14.30;2.40;;;12.00;95.00;;;;;;5011782;28;20129;-43
2022/05/08 07:22:48;;;;;;;15.40;2.25;;;12.20;94.40;;;;;;5010543;28;20046;-43
2022/05/08 07:25:15;;;;;;;12.65;2.10;;;12.50;94.10;;;;;;5016483;28;20232;-42
2022/05/08 07:27:42;;;;;;;9.23;1.90;;;12.80;93.20;;;;;;5005865;28;20056;-43
2022/05/08 07:30:09;;;;;;;12.85;1.95;;;12.80;92.10;;;;;;5009960;28;20056;-43
2022/05/08 07:32:37;;;;;;;16.55;2.85;;;12.80;92.10;;;;;;5003777;28;20482;-42
2022/05/08 07:37:49;;;;;;;12.55;2.08;;;13.20;91.90;;;;;;5008690;28;20061;-44
2022/05/08 07:40:16;;;;;;;13.52;2.58;;;13.40;91.30;;;;;;5012845;28;20057;-41
2022/05/08 07:42:43;;;;;;;11.57;1.90;;;13.60;90.90;;;;;;5013372;28;20050;-42
2022/05/08 07:45:09;;;;;;;15.43;2.45;;;13.80;90.70;;;;;;5013196;28;20081;-42
2022/05/08 07:47:39;;;;;;;10.40;2.03;;;14.00;90.10;;;;;;5011076;28;20060;-42
2022/05/08 07:50:08;;;;;;;11.95;2.30;;;14.10;89.80;;;;;;5012833;28;20056;-42
2022/05/08 07:52:37;;;;;;;13.80;2.10;;;14.20;89.50;;;;;;5004762;28;20054;-42
2022/05/08 07:55:05;;;;;;;15.15;2.28;;;14.30;89.80;;;;;;5013493;28;20054;-42
2022/05/08 07:57:32;;;;;;;9.27;1.80;;;14.40;89.30;;;;;;5010405;28;20049;-43
2022/05/08 07:59:58;;;;;;;14.18;2.63;;;14.60;89.40;;;;;;5012171;28;20081;-42
2022/05/08 08:02:26;;;;;;;18.33;2.45;;;14.70;89.20;;;;;;5017043;28;20064;-43
2022/05/08 08:04:54;;;;;;;9.60;2.45;;;14.80;88.60;;;;;;5012575;28;20465;-42
2022/05/08 08:07:20;;;;;;;13.85;2.20;;;14.90;88.30;;;;;;5011099;28;20050;-42
2022/05/08 08:09:47;;;;;;;11.02;1.90;;;14.80;87.50;;;;;;5012237;28;20048;-42
2022/05/08 08:12:14;;;;;;;10.35;2.10;;;14.90;86.30;;;;;;5011571;28;20463;-43
2022/05/08 08:14:40;;;;;;;12.60;2.20;;;14.90;85.30;;;;;;5010775;28;20052;-42
2022/05/08 08:17:08;;;;;;;12.75;2.33;;;14.90;84.60;;;;;;5011598;28;20048;-42
2022/05/08 08:19:34;;;;;;;10.15;2.10;;;15.00;84.10;;;;;;5010840;28;20453;-43
2022/05/08 08:22:03;;;;;;;10.65;2.50;;;15.10;83.90;;;;;;5012208;28;20057;-42
2022/05/08 08:24:30;;;;;;;10.73;1.83;;;15.30;84.20;;;;;;5010765;28;20512;-42
2022/05/08 08:26:56;;;;;;;8.43;2.10;;;15.30;82.10;;;;;;5000541;28;20149;-42
2022/05/08 08:29:23;;;;;;;14.43;2.67;;;15.30;82.30;;;;;;5009887;28;20096;-42
2022/05/08 08:31:50;;;;;;;12.15;2.42;;;15.40;81.70;;;;;;5008738;28;20496;-43
2022/05/08 08:34:16;;;;;;;11.35;2.17;;;15.60;82.10;;;;;;5011947;28;20045;-42
2022/05/08 08:36:43;;;;;;;15.75;2.45;;;15.80;81.90;;;;;;5001069;28;20042;-42
2022/05/08 08:39:11;;;;;;;14.05;2.22;;;16.00;81.40;;;;;;5013254;28;20048;-41
2022/05/08 08:41:38;;;;;;;13.30;2.35;;;16.20;80.10;;;;;;5006354;28;20129;-42
2022/05/08 08:49:38;;;;;;;11.52;2.00;;;16.20;81.20;;;;;;4993066;28;20507;-42
2022/05/08 08:52:05;;;;;;;10.48;1.95;;;16.40;81.90;;;;;;4988186;28;20056;-43
2022/05/08 08:54:33;;;;;;;9.38;2.13;;;16.50;80.60;;;;;;4990481;28;20042;-42
2022/05/08 08:57:00;;;;;;;7.75;1.83;;;16.60;80.40;;;;;;4974622;28;20054;-43
2022/05/08 08:59:26;;;;;;;12.82;2.58;;;16.80;79.60;;;;;;4990770;28;20407;-43
2022/05/08 09:01:53;;;;;;;13.80;2.53;;;17.00;79.20;;;;;;4975279;28;20046;-43
2022/05/08 09:04:20;;;;;;;16.17;3.10;;;17.20;79.50;;;;;;4976729;28;20451;-43
2022/05/08 09:06:47;;;;;;;15.80;2.60;;;17.20;77.90;;;;;;4991860;28;20054;-43
2022/05/08 09:09:22;;;;;;;15.40;3.10;;;17.10;78.50;;;;;;4991922;28;20129;-43
2022/05/08 09:11:51;;;;;;;17.10;2.33;;;16.90;76.80;;;;;;4991900;28;20063;-42
2022/05/08 09:14:28;;;;;;;13.38;2.15;;;16.90;77.00;;;;;;4992141;28;20045;-42
2022/05/08 09:16:55;;;;;;;7.90;1.92;;;17.00;78.40;;;;;;4991994;28;20056;-43
2022/05/08 09:19:30;;;;;;;10.43;2.45;;;17.30;77.50;;;;;;5002846;28;20050;-43
2022/05/08 09:22:00;;;;;;;10.45;2.40;;;17.40;74.00;;;;;;4986864;28;20065;-42
2022/05/08 09:24:26;;;;;;;11.55;3.33;;;17.40;74.70;;;;;;4984177;28;20050;-43
2022/05/08 09:27:09;;;;;;;11.60;2.17;;;17.40;74.20;;;;;;4974115;28;20667;-43
2022/05/08 09:29:36;;;;;;;7.40;2.00;;;17.30;74.20;;;;;;4974707;28;20053;-42
2022/05/08 09:32:03;;;;;;;13.15;2.50;;;17.30;76.50;;;;;;4986763;28;20380;-42
2022/05/08 09:34:30;;;;;;;13.05;2.70;;;17.50;75.00;;;;;;4973442;28;20467;-42
2022/05/08 09:37:06;;;;;;;42.15;2.55;;;17.60;74.40;;;;;;4986806;28;20050;-42
2022/05/08 09:39:32;;;;;;;11.70;2.13;;;17.80;73.00;;;;;;4991321;28;20048;-42
2022/05/08 09:42:00;;;;;;;13.27;2.67;;;17.80;72.30;;;;;;4999202;28;20054;-43
2022/05/08 09:44:27;;;;;;;12.23;2.58;;;17.80;70.70;;;;;;5011405;28;20202;-42
2022/05/08 09:46:56;;;;;;;11.90;2.55;;;17.90;70.30;;;;;;5003094;28;20161;-43
2022/05/08 09:49:25;;;;;;;10.80;2.40;;;18.20;72.00;;;;;;5010510;28;20116;-42
2022/05/08 09:51:53;;;;;;;16.20;2.67;;;18.10;69.60;;;;;;5000098;28;20055;-42
2022/05/08 09:54:20;;;;;;;9.73;2.33;;;18.20;69.20;;;;;;5007596;28;20050;-43
2022/05/08 09:56:47;;;;;;;9.32;1.80;;;18.40;69.60;;;;;;5012292;28;20056;-42
2022/05/08 09:59:16;;;;;;;9.88;2.13;;;18.60;70.20;;;;;;5011631;28;20145;-42
2022/05/08 10:01:43;;;;;;;11.10;2.42;;;18.80;68.10;;;;;;5011571;28;20465;-41
2022/05/08 10:04:10;;;;;;;12.30;2.47;;;18.80;66.30;;;;;;5005005;28;20365;-42
2022/05/08 10:06:37;;;;;;;10.13;2.40;;;18.60;65.20;;;;;;4999311;28;20064;-42
2022/05/08 10:14:34;;;;;;;14.13;2.15;;;18.50;66.40;;;;;;5009940;28;20050;-42
2022/05/08 10:17:04;;;;;;;11.45;2.55;;;18.60;65.00;;;;;;5004239;28;20406;-42
2022/05/08 10:19:55;;;;;;;13.38;2.40;;;18.70;63.50;;;;;;5001265;28;20125;-42
2022/05/08 10:22:23;;;;;;;10.75;2.10;;;18.80;65.60;;;;;;5009155;28;20041;-43
2022/05/08 10:24:54;;;;;;;11.38;2.70;;;18.90;65.30;;;;;;5007250;28;20566;-43
2022/05/08 10:27:25;;;;;;;12.23;2.40;;;19.00;64.00;;;;;;5004310;28;20136;-43
2022/05/08 10:30:30;;;;;;;7.03;1.77;;;18.90;64.20;;;;;;5001142;28;20550;-43
2022/05/08 10:32:58;;;;;;;11.30;2.22;;;19.00;65.30;;;;;;5018155;28;20049;-44
2022/05/08 10:35:26;;;;;;;12.75;2.67;;;19.10;64.90;;;;;;5010460;28;20562;-43
2022/05/08 10:37:53;;;;;;;9.40;2.40;;;19.30;64.90;;;;;;5005152;28;20049;-44
2022/05/08 10:40:36;;;;;;;8.63;2.05;;;19.50;63.30;;;;;;5010579;28;20513;-43
2022/05/08 10:46:22;;;;;;;11.70;2.90;;;19.90;62.50;;;;;;5009427;28;20045;-43
2022/05/08 10:48:51;;;;;;;12.65;2.40;;;20.20;63.00;;;;;;5010189;28;20084;-44
2022/05/08 10:51:18;;;;;;;11.95;2.60;;;20.20;61.90;;;;;;5013202;28;20054;-43
2022/05/08 10:53:45;;;;;;;9.32;2.40;;;20.30;63.10;;;;;;5005483;28;20050;-43
2022/05/08 10:56:11;;;;;;;9.43;2.45;;;20.50;61.20;;;;;;5014065;28;20132;-43
2022/05/08 10:58:39;;;;;;;8.13;2.05;;;20.30;58.30;;;;;;5009867;28;20112;-43
2022/05/08 11:01:07;;;;;;;11.27;2.00;;;20.10;59.10;;;;;;5009759;28;20462;-43
2022/05/08 11:03:36;;;;;;;13.65;2.50;;;20.00;58.40;;;;;;5013884;28;20516;-43
2022/05/08 11:06:05;;;;;;;8.38;2.15;;;19.90;58.00;;;;;;5011605;28;20058;-43
2022/05/08 11:08:32;;;;;;;7.85;1.98;;;19.90;56.80;;;;;;5012531;28;20053;-43
2022/05/08 11:11:08;;;;;;;8.68;2.08;;;19.90;57.50;;;;;;5013082;28;20092;-43
2022/05/08 11:13:39;;;;;;;11.75;2.38;;;20.00;58.70;;;;;;5008060;28;20564;-43
2022/05/08 11:16:06;;;;;;;9.93;2.20;;;20.10;59.30;;;;;;5012870;28;20050;-43
2022/05/08 11:18:32;;;;;;;12.38;2.47;;;20.20;59.20;;;;;;5013034;28;20050;-43
2022/05/08 11:21:00;;;;;;;7.50;2.55;;;20.30;59.10;;;;;;5012363;28;20045;-43
2022/05/08 11:23:29;;;;;;;7.82;2.22;;;20.30;59.10;;;;;;5012609;28;20092;-43
2022/05/08 11:25:56;;;;;;;10.50;2.53;;;20.30;59.30;;;;;;5014334;28;20075;-43
2022/05/08 11:28:24;;;;;;;11.50;2.40;;;20.30;58.10;;;;;;5014090;28;20068;-43
2022/05/08 11:30:51;;;;;;;11.23;2.47;;;20.40;57.20;;;;;;5012237;28;20502;-43
2022/05/08 11:36:07;;;;;;;11.50;2.00;;;20.40;56.40;;;;;;5010095;28;20053;-45
2022/05/08 11:38:45;;;;;;;16.35;2.80;;;20.40;56.40;;;;;;5009418;28;20131;-42
2022/05/08 11:41:12;;;;;;;9.93;2.72;;;20.50;58.20;;;;;;5004813;28;20066;-44
2022/05/08 11:43:40;;;;;;;10.85;2.45;;;20.70;55.90;;;;;;5011934;28;20054;-44
2022/05/08 11:46:07;;;;;;;9.20;2.60;;;20.60;54.70;;;;;;5008262;28;20132;-42
2022/05/08 11:48:37;;;;;;;13.00;2.38;;;20.60;55.70;;;;;;5011766;28;20145;-42
2022/05/08 11:51:04;;;;;;;11.70;2.45;;;20.60;55.00;;;;;;5008331;28;20096;-43
2022/05/08 11:53:42;;;;;;;9.77;2.58;;;20.60;56.30;;;;;;5010426;28;20052;-43
2022/05/08 11:56:27;;;;;;;10.77;2.42;;;20.80;56.50;;;;;;5012202;28;20148;-43
2022/05/08 11:58:54;;;;;;;11.02;2.67;;;21.00;57.20;;;;;;5005794;28;20050;-43
2022/05/08 12:01:28;;;;;;;16.70;3.08;;;21.20;56.10;;;;;;5009847;28;20381;-43
2022/05/08 12:03:55;;;;;;;17.45;3.20;;;21.50;54.90;;;;;;5002167;28;20064;-43
2022/05/08 12:06:22;;;;;;;11.10;2.47;;;21.50;53.70;;;;;;5004673;28;20054;-44
2022/05/08 12:08:49;;;;;;;11.48;2.63;;;21.50;55.30;;;;;;5010197;28;20060;-44
2022/05/08 12:11:37;;;;;;;14.15;2.90;;;21.40;53.10;;;;;;5011961;28;20071;-43
2022/05/08 12:14:07;;;;;;;9.63;2.20;;;21.30;53.60;;;;;;5009913;28;20042;-43
2022/05/08 12:16:35;;;;;;;11.82;2.67;;;21.40;54.10;;;;;;5010004;28;20488;-44
2022/05/08 12:19:12;;;;;;;11.10;2.50;;;21.40;53.10;;;;;;5007438;28;20053;-44
2022/05/08 12:21:39;;;;;;;8.70;2.53;;;21.40;54.50;;;;;;5011974;28;20050;-43
2022/05/08 12:24:10;;;;;;;12.65;2.38;;;21.60;55.20;;;;;;5006034;28;20046;-44
2022/05/08 12:26:38;;;;;;;8.20;2.10;;;21.80;54.60;;;;;;5006615;28;20047;-43
2022/05/08 12:29:07;;;;;;;11.32;2.63;;;22.00;54.40;;;;;;5009520;28;20049;-43
2022/05/08 12:31:34;;;;;;;7.47;1.70;;;22.20;54.10;;;;;;5009212;28;20080;-44
2022/05/08 12:34:01;;;;;;;11.38;2.78;;;22.20;53.70;;;;;;5005338;28;20144;-44
2022/05/08 12:36:28;;;;;;;17.85;2.97;;;22.30;52.60;;;;;;5010902;28;20361;-44
2022/05/08 12:38:54;;;;;;;11.98;2.72;;;22.20;50.20;;;;;;5009612;28;20056;-44
2022/05/08 12:41:21;;;;;;;9.45;2.70;;;22.20;49.00;;;;;;5012010;28;20050;-43
2022/05/08 12:43:49;;;;;;;11.68;2.40;;;22.20;48.70;;;;;;5008231;28;20121;-43
2022/05/08 12:46:16;;;;;;;7.10;2.05;;;22.20;49.60;;;;;;5010529;28;20072;-44
2022/05/08 12:48:43;;;;;;;9.13;2.45;;;22.00;48.60;;;;;;5009231;28;20056;-43
2022/05/08 12:51:09;;;;;;;11.52;2.72;;;21.90;50.80;;;;;;5012090;28;20226;-44
2022/05/08 12:53:36;;;;;;;7.07;2.50;;;22.00;50.20;;;;;;5010368;28;20421;-44
2022/05/08 12:56:03;;;;;;;11.13;2.40;;;22.00;51.30;;;;;;5009787;28;20052;-43
2022/05/08 13:01:15;;;;;;;10.18;2.75;;;22.00;51.10;;;;;;5008481;28;20140;-44
2022/05/08 13:03:42;;;;;;;8.15;2.25;;;22.10;48.70;;;;;;5010276;28;20080;-44
2022/05/08 13:06:09;;;;;;;9.95;2.78;;;22.00;50.30;;;;;;5012104;28;20056;-44
2022/05/08 13:08:36;;;;;;;10.93;2.40;;;22.10;49.10;;;;;;5011371;28;20045;-44
2022/05/08 13:11:03;;;;;;;10.95;2.40;;;22.30;48.40;;;;;;5008664;28;20146;-44
2022/05/08 13:13:31;;;;;;;9.73;2.75;;;22.40;48.80;;;;;;5009338;28;20053;-44
2022/05/08 13:15:57;;;;;;;12.23;2.55;;;22.40;49.80;;;;;;5008946;28;20473;-43
2022/05/08 13:18:26;;;;;;;7.28;2.03;;;22.30;47.50;;;;;;5007777;28;20388;-44
2022/05/08 13:20:52;;;;;;;7.53;2.40;;;22.10;48.20;;;;;;5011051;28;20053;-43
2022/05/08 13:23:19;;;;;;;11.65;2.25;;;22.00;49.20;;;;;;5008526;28;20146;-44
2022/05/08 13:25:46;;;;;;;7.07;1.80;;;22.10;50.40;;;;;;5010301;28;20038;-43
2022/05/08 13:28:12;;;;;;;9.68;2.30;;;22.20;51.10;;;;;;5005782;28;20479;-43